Abrams, Wisconsin
Current Conditions -  °F | °C
As of 2:35 AM on Tuesday 21 Oct 2014 (Local Time) from KOCQ Reporting Station
Overcast Overcast  
Wind Chill: 40°   Ceiling: 2100
Heat Index: 44°   Visibility: 10mi
Dew Point: 39°   Wind: 6mph
Humidity: 82%   Direction: 350°N
Pressure: 30.07"   Gusts: NA
Location:  44.78°N, 88.06°W
Report Text: KOCQ 210735Z AUTO 35005KT 10SM OVC021 07/04 A3007 RMK AO1 T00650037
Loading
Personal Weather Stations






























Interactive Weather Map
Tropical Storm Tracking
New forecast layout! Learn more

10-Day Weather Forecast

Advertisements
Track Severe Weather on mobile